Time;durP1;ratioP1;P1;durP2;ratioP2;P2;SDS_P1;SDS_P2;PMS_P1;PMS_P2;Temp;Humidity;BMP_temperature;BMP_pressure;BME280_temperature;BME280_humidity;BME280_pressure;Samples;Min_cycle;Max_cycle;Signal;HPM_P1;HPM_P2
2023/12/28 00:01:50;;;;;;;;;;;7.50;99.90;;;;;;5110856;27;19911;-69
2023/12/28 00:04:16;;;;;;;;;;;7.60;99.90;;;;;;5129807;27;20384;-70
2023/12/28 00:06:42;;;;;;;;;;;7.60;99.90;;;;;;5141696;27;19911;-69
2023/12/28 00:09:07;;;;;;;;;;;7.60;99.90;;;;;;5130359;27;19911;-69
2023/12/28 00:11:33;;;;;;;;;;;7.60;99.90;;;;;;5116902;27;19916;-69
2023/12/28 00:13:59;;;;;;;;;;;7.60;99.90;;;;;;5126766;27;19954;-69
2023/12/28 00:16:24;;;;;;;;;;;7.50;99.90;;;;;;5139360;27;19925;-69
2023/12/28 00:18:50;;;;;;;;;;;7.60;99.90;;;;;;5147511;27;20320;-69
2023/12/28 00:21:15;;;;;;;;;;;7.60;99.90;;;;;;5135706;27;19915;-69
2023/12/28 00:23:41;;;;;;;;;;;7.50;99.90;;;;;;5141676;27;19918;-69
2023/12/28 00:26:06;;;;;;;;;;;7.50;99.90;;;;;;5128583;27;19907;-69
2023/12/28 00:28:32;;;;;;;;;;;7.50;99.90;;;;;;5131613;27;19984;-68
2023/12/28 00:30:57;;;;;;;;;;;7.60;99.90;;;;;;5125547;27;19967;-69
2023/12/28 00:33:23;;;;;;;;;;;7.60;99.90;;;;;;5135298;27;19911;-69
2023/12/28 00:35:48;;;;;;;;;;;7.50;99.90;;;;;;5132042;27;19911;-69
2023/12/28 00:38:14;;;;;;;;;;;7.60;99.90;;;;;;5138378;27;19998;-69
2023/12/28 00:40:39;;;;;;;;;;;7.50;99.90;;;;;;5147145;27;19911;-69
2023/12/28 00:43:05;;;;;;;;;;;7.60;99.90;;;;;;5127932;27;19911;-69
2023/12/28 00:45:30;;;;;;;;;;;7.50;99.90;;;;;;5141995;27;19908;-69
2023/12/28 00:47:56;;;;;;;;;;;7.50;99.90;;;;;;5126000;27;19919;-69
2023/12/28 00:50:22;;;;;;;;;;;7.50;99.90;;;;;;5111635;27;19919;-69
2023/12/28 00:52:47;;;;;;;;;;;7.50;99.90;;;;;;5126088;27;20386;-69
2023/12/28 00:55:13;;;;;;;;;;;7.50;99.90;;;;;;5133212;27;20049;-69
2023/12/28 00:57:38;;;;;;;;;;;7.60;99.90;;;;;;5140550;27;19919;-69
2023/12/28 01:00:04;;;;;;;;;;;7.60;99.90;;;;;;5131341;27;19974;-69
2023/12/28 01:02:30;;;;;;;;;;;7.60;99.90;;;;;;5137990;27;20446;-69
2023/12/28 01:04:55;;;;;;;;;;;7.60;99.90;;;;;;5146743;27;19915;-69
2023/12/28 01:07:21;;;;;;;;;;;7.60;99.90;;;;;;5144213;27;19967;-69
2023/12/28 01:09:46;;;;;;;;;;;7.60;99.90;;;;;;5121195;27;20390;-69
2023/12/28 01:12:12;;;;;;;;;;;7.60;99.90;;;;;;5134388;27;19960;-69
2023/12/28 01:14:37;;;;;;;;;;;7.60;99.90;;;;;;5134764;27;19919;-69
2023/12/28 01:17:03;;;;;;;;;;;7.60;99.90;;;;;;5134112;27;19911;-69
2023/12/28 01:19:28;;;;;;;;;;;7.60;99.90;;;;;;5129008;27;19911;-69
2023/12/28 01:21:54;;;;;;;;;;;7.60;99.90;;;;;;5125670;27;19977;-69
2023/12/28 01:24:19;;;;;;;;;;;7.60;99.90;;;;;;5106759;27;20532;-69
2023/12/28 01:26:45;;;;;;;;;;;7.60;99.90;;;;;;5132294;27;19922;-69
2023/12/28 01:29:10;;;;;;;;;;;7.60;99.90;;;;;;5118475;27;19942;-69
2023/12/28 01:31:38;;;;;;;;;;;7.60;99.90;;;;;;5134806;27;19919;-69
2023/12/28 01:34:03;;;;;;;;;;;7.60;99.90;;;;;;5145055;27;19918;-69
2023/12/28 01:36:30;;;;;;;;;;;7.60;99.90;;;;;;5132391;27;19911;-69
2023/12/28 01:38:55;;;;;;;;;;;7.60;99.90;;;;;;5125718;27;19911;-69
2023/12/28 01:41:21;;;;;;;;;;;7.60;99.90;;;;;;5133492;27;20000;-69
2023/12/28 01:43:47;;;;;;;;;;;7.70;99.90;;;;;;5134178;27;19990;-69
2023/12/28 01:46:16;;;;;;;;;;;7.70;99.90;;;;;;5115108;27;19916;-69
2023/12/28 01:48:43;;;;;;;;;;;7.70;99.90;;;;;;5140256;27;19911;-69
2023/12/28 01:51:09;;;;;;;;;;;7.70;99.90;;;;;;5139978;27;19915;-69
2023/12/28 01:53:35;;;;;;;;;;;7.70;99.90;;;;;;5127332;27;19931;-69
2023/12/28 01:56:00;;;;;;;;;;;7.70;99.90;;;;;;5129034;27;19919;-69
2023/12/28 01:58:26;;;;;;;;;;;7.70;99.90;;;;;;5132841;27;19911;-69
2023/12/28 02:00:52;;;;;;;;;;;7.70;99.90;;;;;;5147100;27;20445;-69
2023/12/28 02:03:17;;;;;;;;;;;7.70;99.90;;;;;;5132328;27;19908;-69
2023/12/28 02:05:43;;;;;;;;;;;7.70;99.90;;;;;;5149568;27;19933;-69
2023/12/28 02:08:08;;;;;;;;;;;7.70;99.90;;;;;;5130968;27;20400;-69
2023/12/28 02:10:34;;;;;;;;;;;7.80;99.90;;;;;;5129282;27;19911;-69
2023/12/28 02:12:59;;;;;;;;;;;7.70;99.90;;;;;;5128227;27;19931;-69
2023/12/28 02:15:25;;;;;;;;;;;7.80;99.90;;;;;;5137683;27;19912;-69
2023/12/28 02:17:58;;;;;;;;;;;7.80;99.90;;;;;;5117362;27;19907;-69
2023/12/28 02:20:24;;;;;;;;;;;7.80;99.90;;;;;;5145763;27;19911;-69
2023/12/28 02:22:50;;;;;;;;;;;7.80;99.90;;;;;;5144967;27;20282;-69
2023/12/28 02:25:15;;;;;;;;;;;7.80;99.90;;;;;;5149361;27;20010;-69
2023/12/28 02:27:46;;;;;;;;;;;7.80;99.90;;;;;;5143567;27;20362;-69
2023/12/28 02:30:12;;;;;;;;;;;7.80;99.90;;;;;;5124979;27;20264;-69
2023/12/28 02:33:07;;;;;;;;;;;7.80;99.90;;;;;;5124293;27;19930;-69
2023/12/28 02:35:34;;;;;;;;;;;7.80;99.90;;;;;;5131219;27;20010;-69
2023/12/28 02:38:09;;;;;;;;;;;7.80;99.90;;;;;;5121873;27;19911;-69
2023/12/28 02:40:44;;;;;;;;;;;7.80;99.90;;;;;;5144233;27;19915;-69
2023/12/28 02:43:10;;;;;;;;;;;7.80;99.90;;;;;;5145306;27;20326;-69
2023/12/28 02:45:35;;;;;;;;;;;7.80;99.90;;;;;;5132048;27;19951;-69
2023/12/28 02:48:01;;;;;;;;;;;7.90;99.90;;;;;;5145314;27;20590;-69
2023/12/28 02:50:27;;;;;;;;;;;7.80;99.90;;;;;;5131735;27;19915;-69
2023/12/28 02:52:52;;;;;;;;;;;7.90;99.90;;;;;;5128506;27;20553;-69
2023/12/28 02:55:18;;;;;;;;;;;7.90;99.90;;;;;;5136558;27;19918;-69
2023/12/28 02:57:44;;;;;;;;;;;7.80;99.90;;;;;;5134631;27;20434;-69
2023/12/28 03:00:10;;;;;;;;;;;7.90;99.90;;;;;;5145596;27;19934;-69
2023/12/28 03:02:37;;;;;;;;;;;7.90;99.90;;;;;;5140178;27;19919;-69
2023/12/28 03:05:03;;;;;;;;;;;7.90;99.90;;;;;;5131315;27;19912;-69
2023/12/28 03:07:29;;;;;;;;;;;7.80;99.90;;;;;;5144112;27;20553;-69
2023/12/28 03:09:54;;;;;;;;;;;7.90;99.90;;;;;;5136519;27;20014;-69
2023/12/28 03:12:20;;;;;;;;;;;7.90;99.90;;;;;;5130842;27;19921;-69
2023/12/28 03:14:45;;;;;;;;;;;7.80;99.90;;;;;;5141187;27;20355;-69
2023/12/28 03:17:12;;;;;;;;;;;7.90;99.90;;;;;;5146563;27;19918;-69
2023/12/28 03:19:37;;;;;;;;;;;7.90;99.90;;;;;;5141903;27;19956;-69
2023/12/28 03:22:03;;;;;;;;;;;7.80;99.90;;;;;;5139531;27;19911;-69
2023/12/28 03:24:28;;;;;;;;;;;7.90;99.90;;;;;;5136723;27;20285;-69
2023/12/28 03:26:54;;;;;;;;;;;7.90;99.90;;;;;;5127556;27;19912;-69
2023/12/28 03:29:19;;;;;;;;;;;7.90;99.90;;;;;;5136050;27;19951;-69
2023/12/28 03:31:45;;;;;;;;;;;7.90;99.90;;;;;;5108664;27;19957;-69
2023/12/28 03:34:10;;;;;;;;;;;7.90;99.90;;;;;;5144504;27;19947;-69
2023/12/28 03:36:36;;;;;;;;;;;7.90;99.90;;;;;;5139365;27;19910;-69
2023/12/28 03:39:03;;;;;;;;;;;7.90;99.90;;;;;;5147745;27;19907;-69
2023/12/28 03:41:29;;;;;;;;;;;7.90;99.90;;;;;;5127602;27;19916;-69
2023/12/28 03:43:55;;;;;;;;;;;7.90;99.90;;;;;;5127695;27;19919;-69
2023/12/28 03:46:20;;;;;;;;;;;7.90;99.90;;;;;;5135444;27;19915;-69
2023/12/28 03:48:46;;;;;;;;;;;7.90;99.90;;;;;;5142758;27;19992;-69
2023/12/28 03:51:15;;;;;;;;;;;7.90;99.90;;;;;;5110307;27;19915;-69
2023/12/28 03:53:41;;;;;;;;;;;7.90;99.90;;;;;;5141701;27;19911;-69
2023/12/28 03:56:06;;;;;;;;;;;7.90;99.90;;;;;;5129138;27;19921;-69
2023/12/28 03:58:32;;;;;;;;;;;7.90;99.90;;;;;;5139430;27;19911;-69
2023/12/28 04:00:57;;;;;;;;;;;7.90;99.90;;;;;;5136847;27;20002;-69
2023/12/28 04:03:23;;;;;;;;;;;7.90;99.90;;;;;;5138480;27;19911;-69
2023/12/28 04:05:48;;;;;;;;;;;7.90;99.90;;;;;;5120487;27;19933;-69
2023/12/28 04:08:14;;;;;;;;;;;7.90;99.90;;;;;;5127827;27;19918;-69
2023/12/28 04:10:39;;;;;;;;;;;8.00;99.90;;;;;;5126614;27;19951;-69
2023/12/28 04:13:05;;;;;;;;;;;7.90;99.90;;;;;;5126442;27;19926;-69
2023/12/28 04:15:30;;;;;;;;;;;8.00;99.90;;;;;;5130887;27;19917;-69
2023/12/28 04:17:56;;;;;;;;;;;8.00;99.90;;;;;;5139025;27;19921;-69
2023/12/28 04:20:22;;;;;;;;;;;8.00;99.90;;;;;;5128926;27;20009;-69
2023/12/28 04:22:48;;;;;;;;;;;8.00;99.90;;;;;;5139167;27;19957;-69
2023/12/28 04:25:13;;;;;;;;;;;8.00;99.90;;;;;;5138411;27;19911;-69
2023/12/28 04:27:39;;;;;;;;;;;8.00;99.90;;;;;;5138765;27;20519;-69
2023/12/28 04:30:05;;;;;;;;;;;8.00;99.90;;;;;;5128481;27;19918;-69
2023/12/28 04:32:33;;;;;;;;;;;8.00;99.90;;;;;;5130269;27;20256;-69
2023/12/28 04:34:59;;;;;;;;;;;8.00;99.90;;;;;;5129957;27;19912;-69
2023/12/28 04:37:26;;;;;;;;;;;8.00;99.90;;;;;;5143904;27;19918;-69
2023/12/28 04:39:52;;;;;;;;;;;8.00;99.90;;;;;;5143869;27;19911;-69
2023/12/28 04:42:18;;;;;;;;;;;8.00;99.90;;;;;;5136498;27;19956;-69
2023/12/28 04:44:44;;;;;;;;;;;8.00;99.90;;;;;;5121954;27;19919;-69
2023/12/28 04:47:09;;;;;;;;;;;8.10;99.90;;;;;;5134379;27;20581;-69
2023/12/28 04:49:35;;;;;;;;;;;8.10;99.90;;;;;;5126040;27;19916;-69
2023/12/28 04:52:00;;;;;;;;;;;8.10;99.90;;;;;;5134699;27;20336;-69
2023/12/28 04:54:26;;;;;;;;;;;8.10;99.90;;;;;;5143064;27;19950;-69
2023/12/28 04:56:51;;;;;;;;;;;8.10;99.90;;;;;;5126117;27;19916;-69
2023/12/28 04:59:17;;;;;;;;;;;8.10;99.90;;;;;;5128062;27;19958;-69
2023/12/28 05:01:43;;;;;;;;;;;8.10;99.90;;;;;;5143772;27;19917;-69
2023/12/28 05:04:08;;;;;;;;;;;8.10;99.90;;;;;;5146382;27;19915;-69
2023/12/28 05:06:34;;;;;;;;;;;8.10;99.90;;;;;;5146868;27;19922;-68
2023/12/28 05:09:00;;;;;;;;;;;8.10;99.90;;;;;;5135168;27;19911;-69
2023/12/28 05:11:25;;;;;;;;;;;8.10;99.90;;;;;;5145714;27;19919;-69
2023/12/28 05:13:51;;;;;;;;;;;8.10;99.90;;;;;;5127778;27;19911;-69
2023/12/28 05:16:16;;;;;;;;;;;8.10;99.90;;;;;;5126827;27;19918;-69
2023/12/28 05:18:42;;;;;;;;;;;8.20;99.90;;;;;;5134345;27;19914;-69
2023/12/28 05:21:07;;;;;;;;;;;8.20;99.90;;;;;;5134108;27;19915;-69
2023/12/28 05:23:33;;;;;;;;;;;8.20;99.90;;;;;;5133435;27;19912;-68
2023/12/28 05:25:58;;;;;;;;;;;8.20;99.90;;;;;;5125044;27;20495;-69
2023/12/28 05:28:24;;;;;;;;;;;8.20;99.90;;;;;;5124919;27;19908;-69
2023/12/28 05:30:49;;;;;;;;;;;8.20;99.90;;;;;;5123859;27;19954;-69
2023/12/28 05:33:15;;;;;;;;;;;8.20;99.90;;;;;;5115333;27;20475;-69
2023/12/28 05:35:40;;;;;;;;;;;8.20;99.90;;;;;;5136363;27;19908;-69
2023/12/28 05:38:06;;;;;;;;;;;8.20;99.90;;;;;;5137192;27;19912;-69
2023/12/28 05:40:31;;;;;;;;;;;8.20;99.90;;;;;;5141728;27;19943;-69
2023/12/28 05:42:57;;;;;;;;;;;8.20;99.90;;;;;;5141631;27;19971;-69
2023/12/28 05:45:22;;;;;;;;;;;8.20;99.90;;;;;;5145623;27;20458;-69
2023/12/28 05:47:48;;;;;;;;;;;8.20;99.90;;;;;;5138822;27;19911;-68
2023/12/28 05:50:13;;;;;;;;;;;8.20;99.90;;;;;;5133331;27;19911;-69
2023/12/28 05:52:39;;;;;;;;;;;8.20;99.90;;;;;;5128745;27;19916;-69
2023/12/28 05:55:05;;;;;;;;;;;8.20;99.90;;;;;;5139169;27;20475;-69
2023/12/28 05:57:31;;;;;;;;;;;8.20;99.90;;;;;;5129596;27;19984;-69
2023/12/28 05:59:57;;;;;;;;;;;8.20;99.90;;;;;;5135630;27;20414;-69
2023/12/28 06:02:22;;;;;;;;;;;8.20;99.90;;;;;;5133240;27;19916;-69
2023/12/28 06:04:48;;;;;;;;;;;8.20;99.90;;;;;;5131257;27;19942;-69
2023/12/28 06:07:13;;;;;;;;;;;8.30;99.90;;;;;;5136269;27;20402;-69
2023/12/28 06:09:39;;;;;;;;;;;8.30;99.90;;;;;;5136997;27;19911;-69
2023/12/28 06:12:05;;;;;;;;;;;8.30;99.90;;;;;;5118045;27;19972;-69
2023/12/28 06:14:30;;;;;;;;;;;8.20;99.90;;;;;;5145782;27;19989;-69
2023/12/28 06:16:56;;;;;;;;;;;8.30;99.90;;;;;;5145772;27;19911;-69
2023/12/28 06:19:24;;;;;;;;;;;8.30;99.90;;;;;;5134048;27;19911;-69
2023/12/28 06:21:50;;;;;;;;;;;8.30;99.90;;;;;;5133792;27;19943;-69
2023/12/28 06:24:15;;;;;;;;;;;8.30;99.90;;;;;;5142518;27;20061;-69
2023/12/28 06:26:41;;;;;;;;;;;8.30;99.90;;;;;;5145446;27;19954;-69
2023/12/28 06:29:08;;;;;;;;;;;8.30;99.90;;;;;;5136573;27;19918;-69
2023/12/28 06:31:35;;;;;;;;;;;8.30;99.90;;;;;;5133460;27;20637;-69
2023/12/28 06:34:04;;;;;;;;;;;8.30;99.90;;;;;;5145823;27;20026;-69
2023/12/28 06:36:30;;;;;;;;;;;8.30;99.90;;;;;;5134682;27;19918;-69
2023/12/28 06:38:56;;;;;;;;;;;8.20;99.90;;;;;;5114401;28;19916;-69
2023/12/28 06:41:22;;;;;;;;;;;8.30;99.90;;;;;;5127074;27;20010;-69
2023/12/28 06:43:47;;;;;;;;;;;8.30;99.90;;;;;;5142620;27;20006;-68
2023/12/28 06:46:13;;;;;;;;;;;8.30;99.90;;;;;;5109385;27;19950;-69
2023/12/28 06:48:43;;;;;;;;;;;8.30;99.90;;;;;;5137224;27;19957;-69
2023/12/28 06:51:09;;;;;;;;;;;8.30;99.90;;;;;;5145101;27;19958;-69
2023/12/28 06:53:34;;;;;;;;;;;8.30;99.90;;;;;;5141423;27;19954;-68
2023/12/28 06:56:00;;;;;;;;;;;8.30;99.90;;;;;;5148963;27;20055;-69
2023/12/28 06:58:25;;;;;;;;;;;8.20;99.90;;;;;;5128377;27;19911;-69
2023/12/28 07:00:51;;;;;;;;;;;8.30;99.90;;;;;;5127996;27;19911;-69
2023/12/28 07:03:16;;;;;;;;;;;8.30;99.90;;;;;;5111518;27;20427;-68
2023/12/28 07:05:42;;;;;;;;;;;8.20;99.90;;;;;;5147651;27;19911;-69
2023/12/28 07:08:07;;;;;;;;;;;8.20;99.90;;;;;;5140055;27;20390;-69
2023/12/28 07:10:33;;;;;;;;;;;8.20;99.90;;;;;;5136632;27;20005;-69
2023/12/28 07:12:58;;;;;;;;;;;8.20;99.90;;;;;;5129975;27;19915;-69
2023/12/28 07:15:25;;;;;;;;;;;8.20;99.90;;;;;;5148150;27;19911;-69
2023/12/28 07:17:50;;;;;;;;;;;8.20;99.90;;;;;;5139946;27;19907;-69
2023/12/28 07:20:16;;;;;;;;;;;8.20;99.90;;;;;;5139405;27;19921;-69
2023/12/28 07:22:41;;;;;;;;;;;8.20;99.90;;;;;;5115946;27;19912;-69
2023/12/28 07:25:07;;;;;;;;;;;8.20;99.90;;;;;;5127899;27;20329;-69
2023/12/28 07:27:33;;;;;;;;;;;8.20;99.90;;;;;;5148518;27;19918;-69
2023/12/28 07:29:59;;;;;;;;;;;8.20;99.90;;;;;;5145684;27;19933;-69
2023/12/28 07:32:25;;;;;;;;;;;8.20;99.90;;;;;;5137753;27;20412;-69
2023/12/28 07:34:54;;;;;;;;;;;8.20;99.90;;;;;;5113263;27;20754;-69
2023/12/28 07:37:20;;;;;;;;;;;8.20;99.90;;;;;;5146942;27;19914;-68
2023/12/28 07:39:46;;;;;;;;;;;8.20;99.90;;;;;;5133339;27;19915;-69
2023/12/28 07:42:12;;;;;;;;;;;8.20;99.90;;;;;;5117549;27;19912;-69
2023/12/28 07:44:37;;;;;;;;;;;8.20;99.90;;;;;;5134727;27;19911;-69
2023/12/28 07:47:03;;;;;;;;;;;8.20;99.90;;;;;;5126360;27;19918;-69
2023/12/28 07:49:30;;;;;;;;;;;8.20;99.90;;;;;;5133412;27;20019;-69
2023/12/28 07:51:56;;;;;;;;;;;8.20;99.90;;;;;;5129811;27;20263;-69
2023/12/28 07:54:21;;;;;;;;;;;8.20;99.90;;;;;;5119707;27;19915;-69
2023/12/28 07:56:47;;;;;;;;;;;8.20;99.90;;;;;;5132290;27;20034;-69
2023/12/28 07:59:12;;;;;;;;;;;8.20;99.90;;;;;;5116914;27;19918;-69
2023/12/28 08:01:38;;;;;;;;;;;8.20;99.90;;;;;;5101690;28;19935;-69
2023/12/28 08:04:03;;;;;;;;;;;8.20;99.90;;;;;;5130690;27;20002;-69
2023/12/28 08:06:32;;;;;;;;;;;8.20;99.90;;;;;;5137477;27;19911;-69
2023/12/28 08:08:59;;;;;;;;;;;8.20;99.90;;;;;;5120790;27;20350;-69
2023/12/28 08:11:24;;;;;;;;;;;8.20;99.90;;;;;;5116779;27;19992;-69
2023/12/28 08:13:50;;;;;;;;;;;8.20;99.90;;;;;;5134418;27;19911;-69
2023/12/28 08:16:15;;;;;;;;;;;8.20;99.90;;;;;;5133480;27;20022;-69
2023/12/28 08:18:41;;;;;;;;;;;8.20;99.90;;;;;;5125536;27;20377;-69
2023/12/28 08:21:06;;;;;;;;;;;8.20;99.90;;;;;;5125221;27;19919;-69
2023/12/28 08:23:32;;;;;;;;;;;8.20;99.90;;;;;;5126045;27;19931;-69
2023/12/28 08:25:57;;;;;;;;;;;8.30;99.90;;;;;;5125922;27;20759;-69
2023/12/28 08:28:23;;;;;;;;;;;8.30;99.90;;;;;;5125503;27;19922;-69
2023/12/28 08:30:48;;;;;;;;;;;8.30;99.90;;;;;;5125397;27;19911;-69
2023/12/28 08:33:14;;;;;;;;;;;8.30;99.90;;;;;;5116303;27;20538;-69
2023/12/28 08:35:39;;;;;;;;;;;8.30;99.90;;;;;;5129806;27;20590;-69
2023/12/28 08:38:06;;;;;;;;;;;8.30;99.90;;;;;;5093552;27;19937;-69
2023/12/28 08:40:31;;;;;;;;;;;8.30;99.90;;;;;;5125058;27;20026;-69
2023/12/28 08:42:57;;;;;;;;;;;8.30;99.90;;;;;;5099767;28;20644;-69
2023/12/28 08:45:23;;;;;;;;;;;8.40;99.90;;;;;;5113900;27;19922;-69
2023/12/28 08:47:48;;;;;;;;;;;8.40;99.90;;;;;;5125459;27;20035;-69
2023/12/28 08:50:14;;;;;;;;;;;8.40;99.90;;;;;;5114435;27;19911;-69
2023/12/28 08:52:39;;;;;;;;;;;8.40;99.90;;;;;;5106443;27;20356;-69
2023/12/28 08:55:05;;;;;;;;;;;8.40;99.90;;;;;;5125076;27;19955;-69
2023/12/28 08:57:31;;;;;;;;;;;8.40;99.90;;;;;;5125164;27;19950;-69
2023/12/28 08:59:57;;;;;;;;;;;8.40;99.90;;;;;;5124881;27;19919;-69
2023/12/28 09:02:22;;;;;;;;;;;8.40;99.90;;;;;;5130523;27;20335;-69
2023/12/28 09:04:48;;;;;;;;;;;8.40;99.90;;;;;;5118876;27;19993;-69
2023/12/28 09:07:14;;;;;;;;;;;8.40;99.90;;;;;;5131278;27;19912;-69
2023/12/28 09:09:41;;;;;;;;;;;8.50;99.90;;;;;;5124867;27;20383;-69
2023/12/28 09:12:06;;;;;;;;;;;8.50;99.90;;;;;;5115097;27;19934;-69
2023/12/28 09:14:32;;;;;;;;;;;8.50;99.90;;;;;;5133872;27;19938;-69
2023/12/28 09:16:57;;;;;;;;;;;8.50;99.90;;;;;;5125214;27;19949;-69
2023/12/28 09:19:23;;;;;;;;;;;8.50;99.90;;;;;;5124675;27;20352;-69
2023/12/28 09:21:48;;;;;;;;;;;8.50;99.90;;;;;;5124941;27;20006;-69
2023/12/28 09:24:15;;;;;;;;;;;8.50;99.90;;;;;;5116101;27;20368;-69
2023/12/28 09:26:41;;;;;;;;;;;8.60;99.90;;;;;;5116179;27;19918;-69
2023/12/28 09:29:06;;;;;;;;;;;8.60;99.90;;;;;;5097250;27;20466;-69
2023/12/28 09:31:32;;;;;;;;;;;8.60;99.90;;;;;;5123214;27;19919;-69
2023/12/28 09:33:58;;;;;;;;;;;8.60;99.90;;;;;;5129481;27;19911;-69
2023/12/28 09:36:23;;;;;;;;;;;8.60;99.90;;;;;;5138971;27;20575;-69
2023/12/28 09:38:51;;;;;;;;;;;8.60;99.90;;;;;;5124534;28;19931;-69
2023/12/28 09:41:18;;;;;;;;;;;8.60;99.90;;;;;;5123427;28;20340;-69
2023/12/28 09:43:49;;;;;;;;;;;8.60;99.90;;;;;;5124502;27;19917;-69
2023/12/28 09:46:15;;;;;;;;;;;8.60;99.90;;;;;;5132936;27;20014;-69
2023/12/28 09:48:40;;;;;;;;;;;8.70;99.90;;;;;;5126038;27;19912;-69
2023/12/28 09:51:06;;;;;;;;;;;8.70;99.90;;;;;;5124056;27;20571;-69
2023/12/28 09:53:32;;;;;;;;;;;8.70;99.90;;;;;;5116357;27;19911;-69
2023/12/28 09:55:57;;;;;;;;;;;8.70;99.90;;;;;;5124679;27;19930;-69
2023/12/28 09:58:23;;;;;;;;;;;8.80;99.90;;;;;;5124491;27;19998;-69
2023/12/28 10:00:49;;;;;;;;;;;8.80;99.90;;;;;;5128998;27;19998;-69
2023/12/28 10:03:15;;;;;;;;;;;8.80;99.90;;;;;;5132535;27;19919;-69
2023/12/28 10:05:41;;;;;;;;;;;8.80;99.90;;;;;;5123883;27;19916;-69
2023/12/28 10:08:07;;;;;;;;;;;8.80;99.90;;;;;;5097552;27;19911;-69
2023/12/28 10:10:33;;;;;;;;;;;8.80;99.90;;;;;;5110141;28;19926;-69
2023/12/28 10:12:59;;;;;;;;;;;8.80;99.90;;;;;;5119416;27;19919;-69
2023/12/28 10:15:25;;;;;;;;;;;8.80;99.90;;;;;;5115908;27;19916;-69
2023/12/28 10:17:53;;;;;;;;;;;8.80;99.90;;;;;;5127041;27;19999;-69
2023/12/28 10:20:19;;;;;;;;;;;8.90;99.90;;;;;;5127496;27;19978;-69
2023/12/28 10:22:45;;;;;;;;;;;8.90;99.90;;;;;;5128094;27;20464;-69
2023/12/28 10:25:11;;;;;;;;;;;8.90;99.90;;;;;;5127967;27;19912;-69
2023/12/28 10:27:38;;;;;;;;;;;8.90;99.90;;;;;;5101224;27;19919;-69
2023/12/28 10:30:04;;;;;;;;;;;8.90;99.90;;;;;;5126705;27;20406;-69
2023/12/28 10:32:29;;;;;;;;;;;8.90;99.90;;;;;;5125460;27;19927;-69
2023/12/28 10:34:55;;;;;;;;;;;8.90;99.90;;;;;;5127924;27;19916;-69
2023/12/28 10:37:21;;;;;;;;;;;8.90;99.90;;;;;;5135157;27;19935;-69
2023/12/28 10:39:49;;;;;;;;;;;9.00;99.90;;;;;;5127276;27;19912;-69
2023/12/28 10:42:21;;;;;;;;;;;9.00;99.90;;;;;;5127199;27;19959;-69
2023/12/28 10:44:48;;;;;;;;;;;9.00;99.90;;;;;;5136680;27;20010;-69
2023/12/28 10:47:17;;;;;;;;;;;9.00;99.90;;;;;;5117712;27;19950;-69
2023/12/28 10:49:43;;;;;;;;;;;9.00;99.90;;;;;;5125943;27;20474;-69
2023/12/28 10:52:13;;;;;;;;;;;9.10;99.90;;;;;;5130610;27;19915;-69
2023/12/28 10:54:46;;;;;;;;;;;9.00;99.90;;;;;;5136298;27;19915;-69
2023/12/28 10:57:12;;;;;;;;;;;9.10;99.90;;;;;;5128155;27;19937;-69
2023/12/28 10:59:41;;;;;;;;;;;9.10;99.90;;;;;;5120736;27;20629;-69
2023/12/28 11:02:08;;;;;;;;;;;9.10;99.90;;;;;;5123902;27;19924;-69
2023/12/28 11:04:34;;;;;;;;;;;9.10;99.90;;;;;;5121008;27;19911;-69
2023/12/28 11:07:01;;;;;;;;;;;9.10;99.90;;;;;;5147307;27;19911;-69
2023/12/28 11:09:30;;;;;;;;;;;9.10;99.90;;;;;;5117308;27;19957;-69
2023/12/28 11:11:59;;;;;;;;;;;9.10;99.90;;;;;;5113408;27;20026;-69
2023/12/28 11:14:24;;;;;;;;;;;9.20;99.90;;;;;;5120897;27;20245;-69
2023/12/28 11:16:50;;;;;;;;;;;9.20;99.90;;;;;;5139326;27;19918;-69
2023/12/28 11:19:16;;;;;;;;;;;9.20;99.90;;;;;;5112287;27;19915;-69
2023/12/28 11:21:42;;;;;;;;;;;9.20;99.90;;;;;;5134465;27;19956;-69
2023/12/28 11:24:08;;;;;;;;;;;9.30;99.90;;;;;;5127037;27;20636;-69
2023/12/28 11:26:34;;;;;;;;;;;9.30;99.90;;;;;;5127226;27;19947;-69
2023/12/28 11:29:00;;;;;;;;;;;9.30;99.90;;;;;;5135205;27;19946;-69
2023/12/28 11:31:26;;;;;;;;;;;9.30;99.90;;;;;;5117148;27;19923;-69
2023/12/28 11:33:54;;;;;;;;;;;9.30;99.90;;;;;;5108663;27;19915;-69
2023/12/28 11:36:32;;;;;;;;;;;9.30;99.90;;;;;;5105105;27;19911;-69
2023/12/28 11:39:01;;;;;;;;;;;9.40;99.90;;;;;;5132113;27;19907;-68
2023/12/28 11:41:26;;;;;;;;;;;9.40;99.90;;;;;;5127204;27;20495;-69
2023/12/28 11:43:53;;;;;;;;;;;9.40;99.90;;;;;;5127033;27;19912;-69
2023/12/28 11:46:20;;;;;;;;;;;9.40;99.90;;;;;;5135089;27;19997;-69
2023/12/28 11:48:45;;;;;;;;;;;9.40;99.90;;;;;;5117053;27;20282;-69
2023/12/28 11:51:11;;;;;;;;;;;9.40;99.90;;;;;;5113586;27;19957;-69
2023/12/28 11:53:38;;;;;;;;;;;9.50;99.90;;;;;;5119961;27;19911;-69
2023/12/28 11:56:04;;;;;;;;;;;9.40;99.90;;;;;;5121157;27;19911;-69
2023/12/28 11:58:30;;;;;;;;;;;9.50;99.90;;;;;;5121980;27;20329;-69
2023/12/28 12:00:57;;;;;;;;;;;9.40;99.90;;;;;;5118082;27;20041;-69
2023/12/28 12:03:24;;;;;;;;;;;9.50;99.90;;;;;;5124470;27;20404;-69
2023/12/28 12:05:50;;;;;;;;;;;9.50;99.90;;;;;;5116912;27;19911;-69
2023/12/28 12:08:15;;;;;;;;;;;9.50;99.90;;;;;;5110142;27;19915;-69
2023/12/28 12:10:41;;;;;;;;;;;9.50;99.90;;;;;;5112783;27;19911;-69
2023/12/28 12:13:07;;;;;;;;;;;9.50;99.90;;;;;;5082146;27;19969;-69
2023/12/28 12:15:33;;;;;;;;;;;9.60;99.90;;;;;;5107130;27;19908;-69
2023/12/28 12:17:58;;;;;;;;;;;9.60;99.90;;;;;;5116857;27;20450;-69
2023/12/28 12:20:24;;;;;;;;;;;9.60;99.90;;;;;;5122421;27;19941;-69
2023/12/28 12:22:50;;;;;;;;;;;9.60;99.90;;;;;;5123667;27;19907;-69
2023/12/28 12:25:16;;;;;;;;;;;9.60;99.90;;;;;;5127658;27;21219;-69
2023/12/28 12:27:41;;;;;;;;;;;9.60;99.90;;;;;;5105990;27;20364;-68
2023/12/28 12:30:07;;;;;;;;;;;9.60;99.90;;;;;;5114486;27;19950;-68
2023/12/28 12:32:37;;;;;;;;;;;9.60;99.90;;;;;;5126790;27;20006;-69
2023/12/28 12:35:03;;;;;;;;;;;9.60;99.90;;;;;;5120308;27;19912;-69
2023/12/28 12:37:29;;;;;;;;;;;9.60;99.90;;;;;;5119962;27;19933;-69
2023/12/28 12:39:54;;;;;;;;;;;9.70;99.90;;;;;;5144735;27;19911;-69
2023/12/28 12:42:20;;;;;;;;;;;9.60;99.90;;;;;;5145897;27;20764;-69
2023/12/28 12:44:45;;;;;;;;;;;9.70;99.90;;;;;;5132113;27;19928;-69
2023/12/28 12:47:12;;;;;;;;;;;9.70;99.90;;;;;;5126008;27;19943;-69
2023/12/28 12:49:38;;;;;;;;;;;9.70;99.90;;;;;;5126206;27;19911;-68
2023/12/28 12:52:03;;;;;;;;;;;9.70;99.90;;;;;;5134884;27;19976;-69
2023/12/28 12:54:29;;;;;;;;;;;9.80;99.90;;;;;;5125928;27;19916;-69
2023/12/28 12:56:56;;;;;;;;;;;9.70;99.90;;;;;;5107800;27;19912;-69
2023/12/28 12:59:22;;;;;;;;;;;9.70;99.90;;;;;;5127715;27;19934;-69
2023/12/28 13:01:48;;;;;;;;;;;9.80;99.90;;;;;;5134519;27;19912;-69
2023/12/28 13:04:15;;;;;;;;;;;9.80;99.90;;;;;;5130675;27;19912;-69
2023/12/28 13:06:41;;;;;;;;;;;9.80;99.90;;;;;;5126124;27;19912;-69
2023/12/28 13:09:07;;;;;;;;;;;9.80;99.90;;;;;;5134360;27;19918;-69
2023/12/28 13:11:33;;;;;;;;;;;9.80;99.90;;;;;;5137805;27;19912;-69
2023/12/28 13:13:59;;;;;;;;;;;9.80;99.90;;;;;;5131136;27;19915;-69
2023/12/28 13:16:25;;;;;;;;;;;9.80;99.90;;;;;;5128111;27;20272;-69
2023/12/28 13:18:50;;;;;;;;;;;9.80;99.90;;;;;;5146421;27;19959;-69
2023/12/28 13:21:16;;;;;;;;;;;9.80;99.90;;;;;;5146105;27;20104;-69
2023/12/28 13:23:41;;;;;;;;;;;9.80;99.90;;;;;;5146565;27;20275;-69
2023/12/28 13:26:07;;;;;;;;;;;9.80;99.90;;;;;;5129954;27;19912;-69
2023/12/28 13:28:32;;;;;;;;;;;9.80;99.90;;;;;;5137206;27;19911;-70
2023/12/28 13:30:58;;;;;;;;;;;9.80;99.90;;;;;;5132829;27;19929;-69
2023/12/28 13:33:24;;;;;;;;;;;9.80;99.90;;;;;;5137259;27;19921;-69
2023/12/28 13:35:50;;;;;;;;;;;9.80;99.90;;;;;;5146394;27;19950;-69
2023/12/28 13:38:16;;;;;;;;;;;9.80;99.90;;;;;;5128782;27;19953;-69
2023/12/28 13:40:42;;;;;;;;;;;9.80;99.90;;;;;;5141567;27;19934;-69
2023/12/28 13:43:07;;;;;;;;;;;9.80;99.90;;;;;;5142484;27;19915;-69
2023/12/28 13:45:33;;;;;;;;;;;9.80;99.90;;;;;;5125286;27;19919;-69
2023/12/28 13:47:58;;;;;;;;;;;9.80;99.90;;;;;;5124066;27;19911;-69
2023/12/28 13:50:24;;;;;;;;;;;9.80;99.90;;;;;;5143598;27;19934;-69
2023/12/28 13:52:49;;;;;;;;;;;9.80;99.90;;;;;;5134813;27;19941;-69
2023/12/28 13:55:15;;;;;;;;;;;9.80;99.90;;;;;;5150240;27;20120;-69
2023/12/28 13:57:40;;;;;;;;;;;9.80;99.90;;;;;;5136709;27;19911;-69
2023/12/28 14:00:06;;;;;;;;;;;9.80;99.90;;;;;;5134121;27;19916;-69
2023/12/28 14:02:33;;;;;;;;;;;9.80;99.90;;;;;;5149338;27;19926;-69
2023/12/28 14:04:58;;;;;;;;;;;9.80;99.90;;;;;;5143372;27;19918;-69
2023/12/28 14:07:24;;;;;;;;;;;9.80;99.90;;;;;;5140863;27;19911;-69
2023/12/28 14:09:50;;;;;;;;;;;9.80;99.90;;;;;;5135815;27;20052;-69
2023/12/28 14:12:15;;;;;;;;;;;9.80;99.90;;;;;;5136714;27;19915;-69
2023/12/28 14:14:41;;;;;;;;;;;9.70;99.90;;;;;;5134468;27;19911;-69
2023/12/28 14:17:06;;;;;;;;;;;9.70;99.90;;;;;;5140539;27;19911;-69
2023/12/28 14:19:32;;;;;;;;;;;9.70;99.90;;;;;;5118996;27;19942;-69
2023/12/28 14:21:58;;;;;;;;;;;9.70;99.90;;;;;;5103053;27;20284;-69
2023/12/28 14:24:23;;;;;;;;;;;9.70;99.90;;;;;;5133477;27;19922;-69